Airfield :
LOGIN :

Register | Disclaimer

   EN    FR    IT 

 










Legend :    VFR   Marginal VFR   IFR   Intensive IFR   Very Intensive IFR
Visi :
Ceiling :
>= 8 km
>= 3000ft
5 to 8 km
1000 to 3000 ft
1500m to 5 km
500 to 1000 ft
800 to 1500m
200 to 500 ft
< 800m
< 200 ft
Symbols :   Thunderstorms  Fog  Heavy snow  Heavy precipitations  Wind > 20 kt
SIGMETs :     Misc.  Thunderstorms  Icing  Turbulence  Mountain Waves  Volcanic Ashes






- Airport Elevation : 220 ft
- IATA code : CWL


EGFF - Cardiff Rhoose

CURRENT METAR :
  • 310350Z AUTO 12009KT 9999 BKN019 OVC024 14/11 Q1011

EXPIRED METARs :
  • 310320Z AUTO 18016G29KT 9999 BKN017 OVC023 15/12 Q1011
  • 310250Z AUTO 19017G27KT 9999 BKN014 BKN018 OVC024 14/12 Q1012
  • 310220Z AUTO 19012G22KT 150V220 9999 BKN014 BKN019 OVC025 15/13 Q1012
  • 310150Z AUTO 18016KT 9999 BKN014/// BKN019/// OVC026/// //////TCU 14/13 Q1012
  • 310120Z AUTO 18014KT 9999 BKN013 BKN017 OVC023 15/13 Q1013

TAF AMD TAF EGFF
Valid from the 31 at 04:00 until the 01 at 00:00 UTC


310408Z 3104/3124 14013KT 9999 BKN016
BECMG 3104/3107 19022G35KT
TEMPO 3104/3113 6000 RA BKN012
PROB30
TEMPO 3106/3108 4000 +RA
PROB40
TEMPO 3109/3111 19028G45KT 3000 +RA BKN009
BECMG 3111/3114 25015KT
TEMPO 3111/3117 26018G30KT
BECMG 3120/3123 19010KT
PROB40
TEMPO 3121/3124 8000 -RA
ATIS : +44 1446 729 319



MET'MAP, your aeronautical weather chart ! - Copyright ORBIFLY December 2007 - Disclaimer

ORBIFLY MET'MAP TEAM :

Programming & Development : Alexandra Zaïnal
Concept & original design : Baudouin d'Aumeries
Assistance for programming : Marc-Olivier Méhu
Technical & hardware support : Manuel Goepfert

Contact : metmap@orbifly.com




SOURCES & CREDITS :

   NOAA